createdAt,value
2023-03-21T00:00:58.936Z,27.35
2023-03-21T00:05:53.879Z,25.85
2023-03-21T00:08:22.566Z,27.83
2023-03-21T00:10:59.557Z,28.00
2023-03-21T00:13:28.388Z,27.98
2023-03-21T00:16:05.820Z,29.80
2023-03-21T00:18:42.100Z,30.05
2023-03-21T00:24:00.841Z,33.97
2023-03-21T00:26:27.803Z,33.78
2023-03-21T00:28:54.642Z,36.80
2023-03-21T00:31:21.565Z,37.42
2023-03-21T00:33:48.493Z,40.05
2023-03-21T00:36:16.009Z,40.50
2023-03-21T00:38:43.108Z,41.55
2023-03-21T00:41:23.340Z,44.33
2023-03-21T00:43:55.684Z,45.55
2023-03-21T00:46:25.255Z,51.60
2023-03-21T00:49:07.130Z,49.53
2023-03-21T00:51:33.903Z,50.17
2023-03-21T00:54:01.027Z,50.65
2023-03-21T00:56:27.998Z,52.20
2023-03-21T00:58:54.805Z,46.42
2023-03-21T01:01:22.396Z,49.60
2023-03-21T01:03:51.101Z,46.28
2023-03-21T01:06:19.551Z,51.35
2023-03-21T01:08:52.693Z,47.70
2023-03-21T01:11:23.197Z,44.30
2023-03-21T01:13:56.186Z,45.75
2023-03-21T01:16:26.758Z,49.25
2023-03-21T01:18:53.565Z,45.92
2023-03-21T01:21:20.791Z,47.22
2023-03-21T01:23:47.949Z,45.88
2023-03-21T01:26:15.419Z,50.10
2023-03-21T01:28:43.541Z,51.42
2023-03-21T01:31:13.037Z,48.72
2023-03-21T01:33:40.336Z,44.75
2023-03-21T01:36:13.236Z,47.80
2023-03-21T01:38:41.578Z,47.53
2023-03-21T01:41:19.409Z,49.28
2023-03-21T01:43:47.587Z,46.65
2023-03-21T01:46:45.377Z,50.75
2023-03-21T01:49:26.117Z,49.55
2023-03-21T01:52:11.466Z,48.95
2023-03-21T01:54:41.214Z,47.13
2023-03-21T01:57:12.084Z,49.92
2023-03-21T01:59:44.888Z,48.17
2023-03-21T02:02:17.921Z,47.22
2023-03-21T02:04:51.329Z,50.28
2023-03-21T02:07:24.247Z,52.15
2023-03-21T02:09:53.097Z,47.42
2023-03-21T02:12:34.826Z,47.65
2023-03-21T02:15:02.004Z,48.95
2023-03-21T02:17:34.154Z,51.80
2023-03-21T02:20:26.534Z,53.28
2023-03-21T02:23:26.342Z,50.58
2023-03-21T02:26:14.358Z,49.72
2023-03-21T02:29:04.402Z,46.50
2023-03-21T02:32:36.561Z,48.55
2023-03-21T02:35:22.209Z,52.63
2023-03-21T02:38:04.676Z,47.35
2023-03-21T02:40:39.646Z,51.33
2023-03-21T02:43:23.274Z,44.55
2023-03-21T02:46:43.897Z,45.97
2023-03-21T02:51:45.064Z,44.20
2023-03-21T02:54:35.369Z,42.30
2023-03-21T02:57:06.006Z,46.78
2023-03-21T02:59:37.573Z,40.85
2023-03-21T03:02:09.895Z,44.60
2023-03-21T03:04:36.767Z,45.50
2023-03-21T03:07:28.547Z,47.70
2023-03-21T03:10:20.266Z,44.90
2023-03-21T03:13:16.296Z,43.85
2023-03-21T03:16:02.038Z,43.63
2023-03-21T03:18:55.541Z,42.47
2023-03-21T03:22:02.796Z,41.08
2023-03-21T03:24:36.930Z,41.97
2023-03-21T03:27:12.064Z,39.30
2023-03-21T03:29:42.431Z,38.33
2023-03-21T03:32:18.149Z,41.15
2023-03-21T03:34:50.753Z,38.45
2023-03-21T03:37:21.875Z,37.33
2023-03-21T03:40:21.332Z,39.25
2023-03-21T03:42:53.180Z,40.15
2023-03-21T03:48:09.207Z,35.88
2023-03-21T03:50:44.578Z,35.05
2023-03-21T03:53:25.992Z,35.83
2023-03-21T03:55:54.764Z,31.90
2023-03-21T03:58:25.991Z,30.98
2023-03-21T04:00:55.219Z,32.15
2023-03-21T04:03:22.312Z,35.15
2023-03-21T04:05:49.457Z,29.42
2023-03-21T04:08:17.639Z,30.77
2023-03-21T04:10:44.600Z,28.35
2023-03-21T04:13:11.623Z,29.33
2023-03-21T04:15:38.467Z,31.48
2023-03-21T04:18:05.489Z,32.67
2023-03-21T04:20:37.236Z,35.00
2023-03-21T04:23:08.631Z,32.40
2023-03-21T04:25:38.725Z,29.55
2023-03-21T04:31:24.492Z,28.52
2023-03-21T04:34:10.260Z,31.92
2023-03-21T04:36:46.847Z,26.50
2023-03-21T04:39:28.667Z,34.13
2023-03-21T04:42:10.579Z,30.90
2023-03-21T04:44:37.441Z,31.60
2023-03-21T04:47:04.271Z,32.63
2023-03-21T04:49:31.085Z,33.45
2023-03-21T04:51:58.102Z,31.38
2023-03-21T04:54:25.190Z,30.15
2023-03-21T04:56:52.189Z,30.77
2023-03-21T04:59:19.595Z,35.95
2023-03-21T05:01:46.581Z,35.90
2023-03-21T05:04:14.838Z,32.95
2023-03-21T05:06:42.612Z,36.85
2023-03-21T05:09:09.817Z,32.50
2023-03-21T05:11:38.725Z,35.55
2023-03-21T05:14:06.778Z,34.50
2023-03-21T05:16:34.794Z,37.83
2023-03-21T05:19:05.436Z,34.78
2023-03-21T05:21:41.976Z,32.25
2023-03-21T05:24:15.865Z,37.40
2023-03-21T05:26:44.221Z,36.65
2023-03-21T05:29:13.310Z,34.22
2023-03-21T05:31:40.334Z,38.97
2023-03-21T05:34:07.130Z,39.47
2023-03-21T05:36:36.089Z,36.78
2023-03-21T05:39:04.681Z,39.35
2023-03-21T05:41:31.525Z,36.42
2023-03-21T05:43:58.586Z,40.00
2023-03-21T05:46:35.780Z,40.00
2023-03-21T05:49:02.555Z,41.20
2023-03-21T05:51:29.361Z,40.60
2023-03-21T05:53:56.133Z,44.88
2023-03-21T05:56:23.998Z,37.95
2023-03-21T05:58:51.125Z,43.47
2023-03-21T06:01:18.128Z,40.70
2023-03-21T06:03:46.182Z,40.53
2023-03-21T06:06:12.941Z,41.20
2023-03-21T06:08:39.699Z,41.80
2023-03-21T06:11:20.626Z,37.05
2023-03-21T06:13:47.525Z,35.03
2023-03-21T06:16:14.560Z,34.30
2023-03-21T06:18:41.744Z,41.45
2023-03-21T06:21:08.849Z,37.88
2023-03-21T06:23:36.666Z,38.92
2023-03-21T06:26:04.636Z,35.70
2023-03-21T06:28:32.055Z,38.63
2023-03-21T06:30:58.949Z,34.03
2023-03-21T06:33:26.204Z,37.13
2023-03-21T06:35:57.337Z,39.28
2023-03-21T06:38:25.339Z,40.10
2023-03-21T06:41:07.910Z,38.80
2023-03-21T06:43:35.224Z,41.28
2023-03-21T06:46:03.000Z,40.45
2023-03-21T06:48:33.033Z,37.60
2023-03-21T06:51:16.038Z,41.15
2023-03-21T06:53:43.250Z,38.42
2023-03-21T06:56:11.699Z,39.22
2023-03-21T06:58:53.334Z,40.53
2023-03-21T07:01:35.973Z,38.53
2023-03-21T07:04:02.826Z,42.97
2023-03-21T07:06:30.237Z,38.67
2023-03-21T07:09:05.524Z,42.08
2023-03-21T07:11:47.628Z,42.67
2023-03-21T07:14:14.518Z,39.50
2023-03-21T07:16:41.352Z,44.33
2023-03-21T07:19:08.168Z,43.42
2023-03-21T07:21:35.197Z,40.65
2023-03-21T07:24:16.961Z,44.92
2023-03-21T07:26:43.784Z,41.38
2023-03-21T07:29:10.806Z,38.95
2023-03-21T07:31:37.509Z,41.13
2023-03-21T07:34:04.420Z,44.85
2023-03-21T07:36:31.498Z,44.03
2023-03-21T07:38:58.358Z,45.65
2023-03-21T07:41:25.262Z,42.58
2023-03-21T07:43:53.082Z,40.90
2023-03-21T07:46:19.945Z,39.28
2023-03-21T07:48:46.839Z,45.03
2023-03-21T07:51:13.667Z,42.55
2023-03-21T07:53:41.999Z,44.75
2023-03-21T07:56:09.261Z,42.38
2023-03-21T07:58:36.362Z,44.63
2023-03-21T08:01:03.236Z,40.08
2023-03-21T08:03:31.544Z,42.50
2023-03-21T08:06:01.064Z,47.72
2023-03-21T08:11:11.158Z,42.35
2023-03-21T08:13:37.966Z,43.88
2023-03-21T08:16:05.444Z,41.85
2023-03-21T08:18:47.147Z,41.17
2023-03-21T08:21:13.842Z,44.78
2023-03-21T08:23:40.788Z,44.65
2023-03-21T08:26:10.188Z,45.78
2023-03-21T08:28:39.432Z,45.33
2023-03-21T08:31:10.976Z,46.22
2023-03-21T08:33:54.807Z,49.28
2023-03-21T08:36:24.141Z,47.28
2023-03-21T08:38:57.017Z,49.75
2023-03-21T08:41:25.895Z,44.70
2023-03-21T08:43:52.650Z,41.88
2023-03-21T08:46:19.405Z,46.17
2023-03-21T08:48:46.295Z,41.00
2023-03-21T08:51:13.096Z,43.22
2023-03-21T08:53:41.507Z,45.47
2023-03-21T08:56:08.796Z,46.67
2023-03-21T08:58:36.470Z,41.17
2023-03-21T09:01:07.231Z,45.17
2023-03-21T09:03:33.934Z,42.30
2023-03-21T09:06:15.743Z,39.83
2023-03-21T09:08:43.310Z,40.97
2023-03-21T09:11:10.709Z,40.60
2023-03-21T09:13:37.657Z,38.05
2023-03-21T09:16:05.282Z,40.50
2023-03-21T09:18:48.828Z,37.63
2023-03-21T09:21:18.554Z,36.33
2023-03-21T09:23:47.411Z,33.42
2023-03-21T09:26:16.200Z,33.25
2023-03-21T09:28:43.102Z,33.13
2023-03-21T09:31:11.946Z,31.17
2023-03-21T09:33:42.500Z,29.70
2023-03-21T09:36:19.165Z,25.33
2023-03-21T09:38:47.186Z,28.75
2023-03-21T09:41:32.134Z,28.83
2023-03-21T09:44:09.657Z,27.45
2023-03-21T09:46:45.998Z,25.58
2023-03-21T09:49:22.838Z,24.60
2023-03-21T09:51:54.328Z,23.92
2023-03-21T09:54:29.062Z,21.88
2023-03-21T09:57:01.099Z,24.88
2023-03-21T09:59:38.291Z,22.67
2023-03-21T10:02:32.398Z,21.63
2023-03-21T10:05:00.764Z,21.70
2023-03-21T10:07:31.927Z,19.55
2023-03-21T10:10:01.057Z,23.75
2023-03-21T10:12:31.213Z,22.17
2023-03-21T10:15:01.567Z,21.35
2023-03-21T10:17:43.784Z,23.45
2023-03-21T10:20:12.027Z,22.38
2023-03-21T10:22:39.438Z,24.05
2023-03-21T10:25:08.728Z,21.40
2023-03-21T10:27:37.042Z,24.92
2023-03-21T10:30:15.882Z,23.40
2023-03-21T10:32:42.657Z,19.73
2023-03-21T10:35:13.240Z,20.98
2023-03-21T10:37:40.915Z,20.15
2023-03-21T10:40:16.123Z,22.63
2023-03-21T10:42:43.843Z,22.13
2023-03-21T10:45:20.142Z,21.50
2023-03-21T10:47:52.015Z,20.38
2023-03-21T10:50:24.979Z,21.73
2023-03-21T10:52:55.913Z,20.70
2023-03-21T10:55:29.307Z,21.63
2023-03-21T10:58:08.538Z,23.73
2023-03-21T11:00:39.357Z,21.02
2023-03-21T11:03:06.919Z,21.30
2023-03-21T11:05:37.655Z,23.08
2023-03-21T11:08:16.924Z,21.85
2023-03-21T11:11:00.729Z,23.23
2023-03-21T11:13:41.468Z,23.45
2023-03-21T11:16:18.275Z,24.45
2023-03-21T11:18:49.516Z,22.17
2023-03-21T11:21:17.791Z,21.75
2023-03-21T11:23:49.745Z,23.33
2023-03-21T11:26:27.217Z,21.90
2023-03-21T11:28:55.217Z,23.25
2023-03-21T11:31:25.050Z,23.85
2023-03-21T11:33:56.191Z,21.38
2023-03-21T11:36:23.066Z,23.25
2023-03-21T11:38:59.061Z,23.90
2023-03-21T11:41:34.648Z,23.85
2023-03-21T11:44:02.724Z,21.88
2023-03-21T11:46:32.168Z,23.80
2023-03-21T11:49:00.451Z,24.08
2023-03-21T11:51:33.430Z,21.65
2023-03-21T11:54:52.657Z,21.63
2023-03-21T11:58:13.368Z,20.80
2023-03-21T12:00:51.739Z,21.30
2023-03-21T12:03:48.761Z,20.00
2023-03-21T12:06:38.918Z,19.45
2023-03-21T12:09:29.432Z,19.67
2023-03-21T12:15:10.008Z,27.05
2023-03-21T12:17:47.582Z,19.35
2023-03-21T12:20:30.311Z,19.58
2023-03-21T12:23:15.899Z,21.13
2023-03-21T12:25:54.101Z,21.50
2023-03-21T12:28:39.624Z,21.77
2023-03-21T12:31:33.718Z,21.92
2023-03-21T12:34:38.753Z,22.23
2023-03-21T12:37:08.785Z,22.02
2023-03-21T12:39:38.945Z,22.45
2023-03-21T12:42:14.667Z,23.85
2023-03-21T12:45:19.117Z,24.00
2023-03-21T12:47:52.567Z,28.23
2023-03-21T12:50:27.470Z,25.77
2023-03-21T12:52:59.139Z,25.02
2023-03-21T12:55:33.542Z,24.35
2023-03-21T12:58:24.545Z,26.05
2023-03-21T13:00:55.486Z,27.63
2023-03-21T13:03:45.398Z,26.30
2023-03-21T13:06:18.324Z,27.08
2023-03-21T13:09:36.872Z,24.95
2023-03-21T13:12:16.051Z,28.77
2023-03-21T13:15:12.528Z,29.38
2023-03-21T13:17:50.531Z,30.55
2023-03-21T13:20:37.899Z,28.83
2023-03-21T13:23:06.380Z,28.42
2023-03-21T13:25:33.548Z,30.48
2023-03-21T13:28:04.173Z,28.38
2023-03-21T13:30:32.571Z,27.73
2023-03-21T13:33:11.472Z,31.15
2023-03-21T13:35:44.353Z,30.33
2023-03-21T13:38:18.492Z,32.08
2023-03-21T13:40:57.132Z,31.83
2023-03-21T13:43:44.260Z,31.38
2023-03-21T13:46:15.887Z,29.05
2023-03-21T13:51:48.504Z,31.67
2023-03-21T13:54:15.482Z,31.00
2023-03-21T13:56:48.625Z,30.10
2023-03-21T13:59:37.309Z,32.53
2023-03-21T14:02:21.050Z,31.90
2023-03-21T14:05:06.347Z,35.80
2023-03-21T14:07:42.529Z,32.08
2023-03-21T14:10:20.507Z,32.55
2023-03-21T14:12:47.838Z,31.60
2023-03-21T14:15:24.240Z,31.88
2023-03-21T14:18:06.391Z,33.53
2023-03-21T14:20:43.723Z,28.40
2023-03-21T14:23:15.988Z,27.70
2023-03-21T14:25:47.839Z,27.60
2023-03-21T14:28:28.064Z,29.65
2023-03-21T14:30:57.916Z,29.73
2023-03-21T14:33:44.225Z,28.50
2023-03-21T14:36:17.991Z,28.80
2023-03-21T14:38:58.290Z,27.48
2023-03-21T14:41:29.563Z,28.27
2023-03-21T14:44:24.986Z,27.45
2023-03-21T14:47:07.565Z,27.75
2023-03-21T14:49:36.194Z,27.25
2023-03-21T14:52:06.823Z,24.35
2023-03-21T14:54:34.063Z,27.23
2023-03-21T14:57:04.511Z,25.05
2023-03-21T14:59:36.281Z,25.33
2023-03-21T15:04:33.002Z,24.63
2023-03-21T15:07:04.951Z,29.00
2023-03-21T15:09:34.510Z,25.73
2023-03-21T15:12:02.134Z,26.92
2023-03-21T15:14:35.536Z,25.45
2023-03-21T15:17:05.119Z,26.83
2023-03-21T15:19:35.246Z,28.23
2023-03-21T15:22:23.317Z,31.38
2023-03-21T15:24:54.198Z,31.27
2023-03-21T15:27:24.634Z,31.60
2023-03-21T15:29:58.086Z,30.65
2023-03-21T15:32:27.427Z,29.38
2023-03-21T15:34:56.929Z,31.83
2023-03-21T15:37:27.281Z,28.63
2023-03-21T15:40:09.734Z,30.63
2023-03-21T15:42:41.300Z,34.78
2023-03-21T15:45:24.037Z,33.08
2023-03-21T15:48:12.947Z,31.98
2023-03-21T15:50:57.714Z,30.00
2023-03-21T15:53:25.477Z,30.80
2023-03-21T15:55:57.024Z,31.35
2023-03-21T15:58:27.525Z,36.72
2023-03-21T16:00:56.494Z,30.92
2023-03-21T16:03:27.329Z,31.42
2023-03-21T16:06:11.026Z,32.72
2023-03-21T16:09:03.087Z,33.28
2023-03-21T16:11:41.878Z,32.05
2023-03-21T16:14:11.788Z,31.38
2023-03-21T16:16:38.546Z,30.67
2023-03-21T16:19:07.261Z,31.90
2023-03-21T16:21:35.323Z,34.63
2023-03-21T16:24:02.268Z,35.85
2023-03-21T16:26:32.160Z,33.38
2023-03-21T16:28:59.323Z,30.65
2023-03-21T16:31:29.138Z,33.17
2023-03-21T16:33:55.954Z,31.13
2023-03-21T16:36:29.244Z,33.85
2023-03-21T16:38:56.180Z,31.98
2023-03-21T16:41:25.010Z,29.83
2023-03-21T16:43:52.412Z,32.70
2023-03-21T16:46:22.425Z,31.15
2023-03-21T16:48:52.638Z,30.00
2023-03-21T16:51:33.335Z,32.17
2023-03-21T16:54:00.553Z,31.23
2023-03-21T16:56:36.713Z,33.53
2023-03-21T16:59:03.609Z,30.13
2023-03-21T17:01:30.807Z,31.15
2023-03-21T17:03:58.391Z,37.63
2023-03-21T17:06:27.926Z,32.45
2023-03-21T17:08:56.045Z,36.67
2023-03-21T17:11:24.275Z,33.30
2023-03-21T17:13:53.993Z,32.05
2023-03-21T17:16:26.154Z,30.70
2023-03-21T17:18:54.143Z,34.15
2023-03-21T17:21:23.811Z,33.03
2023-03-21T17:23:51.064Z,31.58
2023-03-21T17:26:23.941Z,33.15
2023-03-21T17:28:52.139Z,32.28
2023-03-21T17:31:23.399Z,34.30
2023-03-21T17:33:54.003Z,33.40
2023-03-21T17:36:28.092Z,32.85
2023-03-21T17:38:55.407Z,33.80
2023-03-21T17:41:22.820Z,32.17
2023-03-21T17:43:51.904Z,32.88
2023-03-21T17:46:25.371Z,34.10
2023-03-21T17:48:52.299Z,33.85
2023-03-21T17:51:19.389Z,32.88
2023-03-21T17:53:51.132Z,34.00
2023-03-21T17:58:47.470Z,31.42
2023-03-21T18:01:14.801Z,33.30
2023-03-21T18:03:41.546Z,35.58
2023-03-21T18:06:14.465Z,32.13
2023-03-21T18:08:42.295Z,32.97
2023-03-21T18:11:10.370Z,30.33
2023-03-21T18:13:38.423Z,30.92
2023-03-21T18:16:06.372Z,29.60
2023-03-21T18:18:34.041Z,31.65
2023-03-21T18:21:01.451Z,32.03
2023-03-21T18:23:28.479Z,31.33
2023-03-21T18:25:55.555Z,30.92
2023-03-21T18:28:22.549Z,30.02
2023-03-21T18:31:07.712Z,27.85
2023-03-21T18:33:36.681Z,28.73
2023-03-21T18:36:07.867Z,29.17
2023-03-21T18:38:35.800Z,32.70
2023-03-21T18:41:03.829Z,29.55
2023-03-21T18:44:01.100Z,29.52
2023-03-21T18:46:19.314Z,30.90
2023-03-21T18:48:46.551Z,28.27
2023-03-21T18:51:13.688Z,27.75
2023-03-21T18:53:40.430Z,30.90
2023-03-21T18:56:10.128Z,32.22
2023-03-21T18:58:37.333Z,32.22
2023-03-21T19:01:05.206Z,32.85
2023-03-21T19:03:37.046Z,33.85
2023-03-21T19:06:06.511Z,33.95
2023-03-21T19:08:38.690Z,30.38
2023-03-21T19:11:07.078Z,32.80
2023-03-21T19:13:34.322Z,31.63
2023-03-21T19:16:02.630Z,30.20
2023-03-21T19:21:19.801Z,32.88
2023-03-21T19:24:22.910Z,30.83
2023-03-21T19:26:33.990Z,27.85
2023-03-21T19:29:01.276Z,29.27
2023-03-21T19:31:28.224Z,26.92
2023-03-21T19:33:55.737Z,28.23
2023-03-21T19:36:23.590Z,26.58
2023-03-21T19:38:51.197Z,24.80
2023-03-21T19:41:20.175Z,24.70
2023-03-21T19:43:54.089Z,24.70
2023-03-21T19:46:24.878Z,21.95
2023-03-21T19:48:56.506Z,20.33
2023-03-21T19:51:29.283Z,22.83
2023-03-21T19:53:58.404Z,20.83
2023-03-21T19:56:27.240Z,21.77
2023-03-21T19:58:55.802Z,23.35
2023-03-21T20:01:24.707Z,19.10
2023-03-21T20:03:52.293Z,20.75
2023-03-21T20:06:22.489Z,20.90
2023-03-21T20:11:40.578Z,19.73
2023-03-21T20:14:07.441Z,20.02
2023-03-21T20:16:36.484Z,20.65
2023-03-21T20:19:06.025Z,20.73
2023-03-21T20:21:45.221Z,19.58
2023-03-21T20:24:16.312Z,21.63
2023-03-21T20:26:45.060Z,19.83
2023-03-21T20:30:05.444Z,18.23
2023-03-21T20:31:59.002Z,17.60
2023-03-21T20:34:25.769Z,17.63
2023-03-21T20:36:53.401Z,15.35
2023-03-21T20:39:20.369Z,18.33
2023-03-21T20:41:47.093Z,18.85
2023-03-21T20:44:48.060Z,17.05
2023-03-21T20:47:00.919Z,16.75
2023-03-21T20:49:28.421Z,15.80
2023-03-21T20:54:43.635Z,13.80
2023-03-21T20:57:10.698Z,13.30
2023-03-21T20:59:37.613Z,16.23
2023-03-21T21:02:05.315Z,13.25
2023-03-21T21:04:49.774Z,13.45
2023-03-21T21:07:21.798Z,15.35
2023-03-21T21:09:49.570Z,16.10
2023-03-21T21:12:19.258Z,17.33
2023-03-21T21:14:47.808Z,16.45
2023-03-21T21:17:34.046Z,14.57
2023-03-21T21:20:16.227Z,15.70
2023-03-21T21:23:00.055Z,15.95
2023-03-21T21:25:30.803Z,17.17
2023-03-21T21:27:57.742Z,18.15
2023-03-21T21:30:24.641Z,18.30
2023-03-21T21:32:51.396Z,17.38
2023-03-21T21:35:19.539Z,13.35
2023-03-21T21:37:46.907Z,16.50
2023-03-21T21:40:15.818Z,18.73
2023-03-21T21:42:44.175Z,19.65
2023-03-21T21:45:12.841Z,18.85
2023-03-21T21:47:40.052Z,20.23
2023-03-21T21:50:10.440Z,19.15
2023-03-21T21:52:37.446Z,18.55
2023-03-21T21:55:06.421Z,24.90
2023-03-21T21:57:34.580Z,22.20
2023-03-21T22:00:06.075Z,18.17
2023-03-21T22:02:33.093Z,19.35
2023-03-21T22:04:59.806Z,22.58
2023-03-21T22:07:27.706Z,20.63
2023-03-21T22:09:54.946Z,22.50
2023-03-21T22:12:21.788Z,24.85
2023-03-21T22:14:48.549Z,22.15
2023-03-21T22:17:15.431Z,22.70
2023-03-21T22:19:43.519Z,24.08
2023-03-21T22:22:11.464Z,27.92
2023-03-21T22:24:38.276Z,26.35
2023-03-21T22:27:05.663Z,24.33
2023-03-21T22:29:33.662Z,28.88
2023-03-21T22:32:00.843Z,30.23
2023-03-21T22:34:27.781Z,29.73
2023-03-21T22:36:57.047Z,29.58
2023-03-21T22:39:26.250Z,33.03
2023-03-21T22:42:04.746Z,39.15
2023-03-21T22:44:35.415Z,32.00
2023-03-21T22:47:08.214Z,36.05
2023-03-21T22:49:36.344Z,37.13
2023-03-21T22:52:04.473Z,39.15
2023-03-21T22:54:32.384Z,38.78
2023-03-21T22:57:02.671Z,42.45
2023-03-21T22:59:29.614Z,42.03
2023-03-21T23:01:56.764Z,42.85
2023-03-21T23:04:24.633Z,48.50
2023-03-21T23:06:51.561Z,44.08
2023-03-21T23:09:18.412Z,41.40
2023-03-21T23:11:48.949Z,42.00
2023-03-21T23:14:20.862Z,43.28
2023-03-21T23:16:49.601Z,43.95
2023-03-21T23:19:16.649Z,43.60
2023-03-21T23:21:44.385Z,40.92
2023-03-21T23:24:11.718Z,40.72
2023-03-21T23:26:39.274Z,43.70
2023-03-21T23:29:09.911Z,46.38
2023-03-21T23:31:37.044Z,47.92
2023-03-21T23:34:04.422Z,45.47
2023-03-21T23:36:31.218Z,42.72
2023-03-21T23:38:58.109Z,40.83
2023-03-21T23:41:25.711Z,39.13
2023-03-21T23:43:53.078Z,43.63
2023-03-21T23:46:20.449Z,39.33
2023-03-21T23:48:47.672Z,37.17
2023-03-21T23:51:16.407Z,46.30
2023-03-21T23:53:45.306Z,39.95
2023-03-21T23:56:23.629Z,40.03
2023-03-21T23:58:50.528Z,41.70
